Time;durP1;ratioP1;P1;durP2;ratioP2;P2;SDS_P1;SDS_P2;PMS_P1;PMS_P2;Temp;Humidity;BMP_temperature;BMP_pressure;BME280_temperature;BME280_humidity;BME280_pressure;Samples;Min_cycle;Max_cycle;Signal;HPM_P1;HPM_P2
2021/05/06 00:01:54;;;;;;;17.67;14.20;;;;;;;;;;4981183;28;47831;-79
2021/05/06 00:05:01;;;;;;;17.17;13.47;;;;;;;;;;4987478;28;39040;-79
2021/05/06 00:10:12;;;;;;;19.87;12.77;;;;;;;;;;5008590;28;40494;-79
2021/05/06 00:34:12;;;;;;;14.87;12.93;;;;;;;;;;5005589;28;39949;-79
2021/05/06 00:36:39;;;;;;;15.27;13.67;;;;;;;;;;4986312;28;38974;-79
2021/05/06 00:39:13;;;;;;;16.03;14.33;;;;;;;;;;4980064;28;38196;-79
2021/05/06 00:41:58;;;;;;;18.33;14.07;;;;;;;;;;4975062;28;36146;-79
2021/05/06 01:04:03;;;;;;;19.50;16.97;;;;;;;;;;4982659;28;49641;-79
2021/05/06 01:06:31;;;;;;;19.27;15.57;;;;;;;;;;4959676;28;47818;-79
2021/05/06 01:09:04;;;;;;;22.20;18.33;;;;;;;;;;4975151;28;37194;-80
2021/05/06 01:11:38;;;;;;;24.05;20.85;;;;;;;;;;4970105;28;46485;-80
2021/05/06 01:14:06;;;;;;;18.83;15.57;;;;;;;;;;4961366;28;35793;-80
2021/05/06 01:16:32;;;;;;;20.23;17.23;;;;;;;;;;4955780;28;38246;-79
2021/05/06 01:18:59;;;;;;;18.93;15.73;;;;;;;;;;4979689;28;39702;-79
2021/05/06 01:21:25;;;;;;;21.03;18.50;;;;;;;;;;4957004;28;37248;-79
2021/05/06 01:23:53;;;;;;;28.03;21.60;;;;;;;;;;4983385;28;36911;-80
2021/05/06 01:27:06;;;;;;;32.47;25.23;;;;;;;;;;4962099;28;37938;-79
2021/05/06 01:29:15;;;;;;;18.30;15.90;;;;;;;;;;4975655;28;38511;-80
2021/05/06 01:31:49;;;;;;;18.92;16.85;;;;;;;;;;4971116;28;38738;-79
2021/05/06 01:34:20;;;;;;;22.97;19.33;;;;;;;;;;4987977;28;36829;-80
2021/05/06 01:36:57;;;;;;;27.10;21.90;;;;;;;;;;4962356;28;37912;-79
2021/05/06 01:39:43;;;;;;;32.57;23.87;;;;;;;;;;4959793;28;38709;-80
2021/05/06 01:47:33;;;;;;;30.80;24.40;;;;;;;;;;4979128;28;39704;-80
2021/05/06 01:58:42;;;;;;;37.53;24.70;;;;;;;;;;4982629;28;49295;-80
2021/05/06 02:01:09;;;;;;;18.93;16.93;;;;;;;;;;4983753;28;37986;-80
2021/05/06 02:03:35;;;;;;;25.80;19.67;;;;;;;;;;4964862;28;37348;-79
2021/05/06 02:06:02;;;;;;;25.67;20.13;;;;;;;;;;4976510;28;33657;-79
2021/05/06 02:08:29;;;;;;;28.37;22.60;;;;;;;;;;4979731;28;48459;-80
2021/05/06 02:10:59;;;;;;;26.07;20.57;;;;;;;;;;4982261;28;39790;-79
2021/05/06 02:13:26;;;;;;;30.20;22.57;;;;;;;;;;4966090;28;37271;-80
2021/05/06 02:16:02;;;;;;;26.90;20.87;;;;;;;;;;4979881;28;37569;-79
2021/05/06 02:18:29;;;;;;;28.77;22.37;;;;;;;;;;4958901;28;48442;-80
2021/05/06 02:20:56;;;;;;;24.77;20.13;;;;;;;;;;4957485;28;37547;-79
2021/05/06 02:23:22;;;;;;;27.70;21.40;;;;;;;;;;4964427;28;37473;-79
2021/05/06 02:25:49;;;;;;;25.87;22.30;;;;;;;;;;4972073;28;36017;-80
2021/05/06 02:28:17;;;;;;;28.03;22.43;;;;;;;;;;4971823;28;37940;-80
2021/05/06 02:30:43;;;;;;;31.63;23.97;;;;;;;;;;4983347;28;36585;-80
2021/05/06 02:33:10;;;;;;;35.17;26.67;;;;;;;;;;4956232;28;36488;-80
2021/05/06 02:35:37;;;;;;;25.10;21.93;;;;;;;;;;4957090;28;35829;-80
2021/05/06 02:38:04;;;;;;;32.33;25.83;;;;;;;;;;4972195;28;38107;-80
2021/05/06 02:40:31;;;;;;;32.23;26.20;;;;;;;;;;4972997;28;39905;-80
2021/05/06 02:42:57;;;;;;;33.60;24.13;;;;;;;;;;5008448;28;39491;-80
2021/05/06 02:45:23;;;;;;;45.80;28.90;;;;;;;;;;5003836;28;38397;-80
2021/05/06 02:47:50;;;;;;;26.37;21.67;;;;;;;;;;4984284;28;37835;-80
2021/05/06 02:50:20;;;;;;;44.80;30.07;;;;;;;;;;4986155;28;39013;-80
2021/05/06 02:52:54;;;;;;;29.40;22.83;;;;;;;;;;4986181;28;38125;-80
2021/05/06 02:58:18;;;;;;;39.75;28.60;;;;;;;;;;5004844;28;39544;-80
2021/05/06 03:03:37;;;;;;;42.57;29.30;;;;;;;;;;5011760;28;48460;-80
2021/05/06 03:06:04;;;;;;;46.17;30.57;;;;;;;;;;4988156;28;36449;-80
2021/05/06 03:08:35;;;;;;;45.30;29.70;;;;;;;;;;4990831;28;39510;-80
2021/05/06 03:11:47;;;;;;;30.80;24.43;;;;;;;;;;4990573;28;38635;-80
2021/05/06 03:24:54;;;;;;;34.90;24.43;;;;;;;;;;5011748;28;37775;-80
2021/05/06 03:27:27;;;;;;;28.33;20.17;;;;;;;;;;4996506;28;34746;-80
2021/05/06 04:18:51;;;;;;;10.23;8.07;;;;;;;;;;5012763;28;38504;-80
2021/05/06 04:37:10;;;;;;;7.13;5.40;;;;;;;;;;5008279;28;40137;-79
2021/05/06 04:39:50;;;;;;;6.90;5.37;;;;;;;;;;4974778;28;37174;-79
2021/05/06 04:45:31;;;;;;;16.33;6.50;;;;;;;;;;5006532;28;39673;-79
2021/05/06 04:56:03;;;;;;;8.97;6.47;;;;;;;;;;5010378;28;39297;-80
2021/05/06 04:59:01;;;;;;;6.33;5.73;;;;;;;;;;4991841;28;48614;-80
2021/05/06 05:06:46;;;;;;;8.87;6.53;;;;;;;;;;5006979;28;39837;-80
2021/05/06 05:23:52;;;;;;;12.00;9.40;;;;;;;;;;4909087;28;49331;-80
2021/05/06 05:26:18;;;;;;;13.53;10.30;;;;;;;;;;4930752;28;35888;-79
2021/05/06 05:28:44;;;;;;;18.07;12.43;;;;;;;;;;5003053;28;39249;-79
2021/05/06 05:31:11;;;;;;;16.03;13.33;;;;;;;;;;4985820;28;37799;-79
2021/05/06 05:33:48;;;;;;;27.47;17.37;;;;;;;;;;4986129;28;38125;-79
2021/05/06 05:36:23;;;;;;;25.87;17.17;;;;;;;;;;4992323;28;36923;-80
2021/05/06 05:38:56;;;;;;;23.30;18.00;;;;;;;;;;4993152;28;39492;-80
2021/05/06 05:41:49;;;;;;;31.53;21.73;;;;;;;;;;5013618;28;39113;-81
2021/05/06 05:55:17;;;;;;;39.53;26.07;;;;;;;;;;5014945;28;38808;-79
2021/05/06 05:57:43;;;;;;;33.13;24.73;;;;;;;;;;4989805;28;36230;-79
2021/05/06 06:00:10;;;;;;;39.03;26.83;;;;;;;;;;4986551;28;39482;-78
2021/05/06 06:02:38;;;;;;;32.70;25.13;;;;;;;;;;4999815;28;37596;-78
2021/05/06 06:05:05;;;;;;;32.70;24.27;;;;;;;;;;5001683;28;37371;-79
2021/05/06 06:07:33;;;;;;;38.53;28.03;;;;;;;;;;5016979;28;50053;-79
2021/05/06 06:09:59;;;;;;;36.43;26.70;;;;;;;;;;5020970;28;41023;-77
2021/05/06 06:12:25;;;;;;;35.10;27.87;;;;;;;;;;4990950;28;38571;-79
2021/05/06 06:15:05;;;;;;;32.30;27.17;;;;;;;;;;5025401;28;39565;-80
2021/05/06 06:17:42;;;;;;;40.90;29.10;;;;;;;;;;5011116;28;47387;-80
2021/05/06 06:20:09;;;;;;;39.63;29.07;;;;;;;;;;5011753;28;39545;-79
2021/05/06 06:22:39;;;;;;;39.50;27.13;;;;;;;;;;4992751;28;37339;-79
2021/05/06 06:25:06;;;;;;;34.97;28.13;;;;;;;;;;4988916;28;39279;-79
2021/05/06 06:27:32;;;;;;;35.33;27.67;;;;;;;;;;4986706;28;35997;-78
2021/05/06 06:30:00;;;;;;;28.60;23.90;;;;;;;;;;4993479;28;36011;-79
2021/05/06 06:32:26;;;;;;;25.93;20.93;;;;;;;;;;5000712;28;41415;-80
2021/05/06 06:34:53;;;;;;;28.47;21.93;;;;;;;;;;4985508;28;40108;-79
2021/05/06 06:37:19;;;;;;;29.70;22.37;;;;;;;;;;4981237;28;37566;-79
2021/05/06 06:39:46;;;;;;;24.87;21.23;;;;;;;;;;4996323;28;40008;-79
2021/05/06 06:42:12;;;;;;;27.27;22.70;;;;;;;;;;4971726;28;39707;-79
2021/05/06 06:44:39;;;;;;;29.17;22.10;;;;;;;;;;5006567;28;38262;-79
2021/05/06 06:47:06;;;;;;;28.83;22.80;;;;;;;;;;5000839;28;36915;-78
2021/05/06 06:49:34;;;;;;;27.93;22.87;;;;;;;;;;4994147;28;38969;-78
2021/05/06 06:52:01;;;;;;;26.67;21.03;;;;;;;;;;4974061;28;38526;-78
2021/05/06 06:54:28;;;;;;;24.83;19.77;;;;;;;;;;4998977;23;47557;-80
2021/05/06 06:56:55;;;;;;;25.50;20.13;;;;;;;;;;5004062;28;36143;-80
2021/05/06 06:59:31;;;;;;;21.90;17.97;;;;;;;;;;5009028;28;39172;-82
2021/05/06 07:01:57;;;;;;;25.87;19.23;;;;;;;;;;5048612;23;38645;-80
2021/05/06 07:04:24;;;;;;;24.20;17.37;;;;;;;;;;5010668;28;39470;-82
2021/05/06 07:06:50;;;;;;;18.77;15.60;;;;;;;;;;5016288;28;37343;-82
2021/05/06 07:09:17;;;;;;;18.97;15.50;;;;;;;;;;5008652;28;38705;-82
2021/05/06 07:11:44;;;;;;;16.77;14.25;;;;;;;;;;5004335;28;38488;-79
2021/05/06 07:14:10;;;;;;;15.93;14.18;;;;;;;;;;5002012;28;38992;-79
2021/05/06 07:16:36;;;;;;;17.67;15.65;;;;;;;;;;4995102;28;35997;-79
2021/05/06 07:19:03;;;;;;;19.30;17.10;;;;;;;;;;5004779;28;40128;-78
2021/05/06 07:21:31;;;;;;;19.35;17.35;;;;;;;;;;5013799;28;39643;-79
2021/05/06 07:23:57;;;;;;;19.92;16.23;;;;;;;;;;5003020;28;38841;-79
2021/05/06 07:26:25;;;;;;;19.90;16.50;;;;;;;;;;5000433;28;36183;-80
2021/05/06 07:28:53;;;;;;;20.90;16.45;;;;;;;;;;5007922;28;37874;-79
2021/05/06 07:31:20;;;;;;;19.30;17.30;;;;;;;;;;4989161;28;40348;-79
2021/05/06 07:33:47;;;;;;;19.90;17.55;;;;;;;;;;5010026;28;38241;-79
2021/05/06 07:36:15;;;;;;;19.77;15.65;;;;;;;;;;5007509;28;37000;-81
2021/05/06 07:38:42;;;;;;;19.80;16.17;;;;;;;;;;4990306;28;39321;-80
2021/05/06 07:41:11;;;;;;;22.73;17.05;;;;;;;;;;5011932;28;39364;-79
2021/05/06 07:43:37;;;;;;;22.63;15.85;;;;;;;;;;5000290;28;39547;-80
2021/05/06 07:46:04;;;;;;;19.08;15.43;;;;;;;;;;5004614;28;36307;-81
2021/05/06 07:48:30;;;;;;;19.70;15.68;;;;;;;;;;5019334;28;39654;-79
2021/05/06 07:50:57;;;;;;;21.27;15.65;;;;;;;;;;5005332;28;38784;-79
2021/05/06 07:53:35;;;;;;;16.60;14.07;;;;;;;;;;4994902;28;38849;-80
2021/05/06 07:56:01;;;;;;;18.88;13.93;;;;;;;;;;5011538;28;35030;-79
2021/05/06 07:58:28;;;;;;;17.73;12.90;;;;;;;;;;5017630;28;46902;-80
2021/05/06 08:00:54;;;;;;;14.88;13.07;;;;;;;;;;4998996;28;37231;-79
2021/05/06 08:03:21;;;;;;;18.85;13.85;;;;;;;;;;4998928;28;38342;-80
2021/05/06 08:05:49;;;;;;;17.40;15.48;;;;;;;;;;5001676;28;36057;-80
2021/05/06 08:08:15;;;;;;;17.77;14.50;;;;;;;;;;4991659;28;39911;-79
2021/05/06 08:10:42;;;;;;;15.90;13.55;;;;;;;;;;5001277;28;39566;-79
2021/05/06 08:13:08;;;;;;;19.88;14.00;;;;;;;;;;4988478;28;38553;-80
2021/05/06 08:15:35;;;;;;;16.77;13.18;;;;;;;;;;5003303;28;36864;-79
2021/05/06 08:18:01;;;;;;;18.52;15.23;;;;;;;;;;5002962;28;43002;-79
2021/05/06 08:20:28;;;;;;;16.25;13.77;;;;;;;;;;4983697;28;38742;-79
2021/05/06 08:22:54;;;;;;;15.18;12.60;;;;;;;;;;4991136;28;39466;-79
2021/05/06 08:25:23;;;;;;;18.80;13.65;;;;;;;;;;4992550;28;38747;-79
2021/05/06 08:27:50;;;;;;;15.23;13.00;;;;;;;;;;5007536;28;39274;-79
2021/05/06 08:30:17;;;;;;;15.38;12.57;;;;;;;;;;5007653;28;38616;-79
2021/05/06 08:32:43;;;;;;;14.10;11.30;;;;;;;;;;5005644;28;37904;-79
2021/05/06 08:35:10;;;;;;;13.05;10.55;;;;;;;;;;4989530;28;36122;-79
2021/05/06 08:37:37;;;;;;;12.57;10.02;;;;;;;;;;4992280;28;39519;-80
2021/05/06 08:40:04;;;;;;;12.82;10.40;;;;;;;;;;5012180;28;39527;-79
2021/05/06 08:42:31;;;;;;;11.48;8.88;;;;;;;;;;5003754;28;47905;-79
2021/05/06 08:44:58;;;;;;;12.05;9.63;;;;;;;;;;4987990;28;38661;-79
2021/05/06 08:47:24;;;;;;;10.35;8.88;;;;;;;;;;4998473;28;40164;-79
2021/05/06 08:49:51;;;;;;;12.00;8.88;;;;;;;;;;5005497;28;38724;-79
2021/05/06 08:52:20;;;;;;;12.48;8.30;;;;;;;;;;4993949;28;41065;-79
2021/05/06 08:54:54;;;;;;;11.80;7.97;;;;;;;;;;4980384;28;37022;-80
2021/05/06 08:57:21;;;;;;;8.57;6.85;;;;;;;;;;4999374;28;39515;-78
2021/05/06 08:59:48;;;;;;;9.05;6.80;;;;;;;;;;5006543;28;37232;-80
2021/05/06 09:02:14;;;;;;;8.75;7.15;;;;;;;;;;4996511;28;36842;-79
2021/05/06 09:04:41;;;;;;;9.10;7.07;;;;;;;;;;4979421;28;37408;-79
2021/05/06 09:07:09;;;;;;;8.77;6.03;;;;;;;;;;4993310;28;40836;-79
2021/05/06 09:09:36;;;;;;;8.13;6.88;;;;;;;;;;4983412;28;39543;-79
2021/05/06 09:12:03;;;;;;;10.50;6.63;;;;;;;;;;4998798;28;36801;-79
2021/05/06 09:14:36;;;;;;;10.70;6.47;;;;;;;;;;5001407;28;37447;-79
2021/05/06 09:17:02;;;;;;;;;;;;;;;;;;5004479;28;39528;-79
2021/05/06 09:19:29;;;;;;;9.82;5.72;;;;;;;;;;4976529;28;39281;-79
2021/05/06 09:21:56;;;;;;;8.45;5.85;;;;;;;;;;4981775;28;39634;-79
2021/05/06 09:24:28;;;;;;;8.88;6.07;;;;;;;;;;4992319;28;36710;-78
2021/05/06 09:26:57;;;;;;;8.48;6.25;;;;;;;;;;4984026;28;39973;-78
2021/05/06 09:29:37;;;;;;;9.18;7.00;;;;;;;;;;4991569;28;38595;-78
2021/05/06 09:32:15;;;;;;;6.40;3.85;;;;;;;;;;4988213;28;38906;-78
2021/05/06 09:34:42;;;;;;;6.70;3.47;;;;;;;;;;4978412;28;36960;-78
2021/05/06 09:37:10;;;;;;;6.55;3.28;;;;;;;;;;4976767;28;40651;-78
2021/05/06 09:39:37;;;;;;;4.72;2.95;;;;;;;;;;4991168;28;39874;-79
2021/05/06 09:42:07;;;;;;;7.82;2.83;;;;;;;;;;4992944;28;36899;-78
2021/05/06 09:44:50;;;;;;;6.35;3.25;;;;;;;;;;4994239;28;35315;-79
2021/05/06 09:47:17;;;;;;;5.28;3.55;;;;;;;;;;4991429;28;39357;-78
2021/05/06 09:49:44;;;;;;;6.13;4.07;;;;;;;;;;4990528;28;38270;-78
2021/05/06 09:52:10;;;;;;;4.90;3.67;;;;;;;;;;4985296;28;39049;-78
2021/05/06 09:54:44;;;;;;;9.63;5.03;;;;;;;;;;4983168;28;36730;-79
2021/05/06 09:57:11;;;;;;;7.93;5.00;;;;;;;;;;4983300;28;40601;-78
2021/05/06 09:59:39;;;;;;;8.52;4.78;;;;;;;;;;4997047;28;39034;-79
2021/05/06 10:02:18;;;;;;;7.25;5.28;;;;;;;;;;4986558;28;39396;-78
2021/05/06 10:04:48;;;;;;;6.18;4.97;;;;;;;;;;4980812;28;36312;-78
2021/05/06 10:07:25;;;;;;;10.43;5.95;;;;;;;;;;4981656;28;39228;-79
2021/05/06 10:10:01;;;;;;;5.95;4.80;;;;;;;;;;4995828;28;38597;-79
2021/05/06 10:12:29;;;;;;;9.88;4.97;;;;;;;;;;4986008;28;39570;-79
2021/05/06 10:14:56;;;;;;;8.05;4.53;;;;;;;;;;4995496;28;37007;-79
2021/05/06 10:17:24;;;;;;;6.63;5.22;;;;;;;;;;4997303;28;38811;-78
2021/05/06 10:19:50;;;;;;;10.82;6.13;;;;;;;;;;4999228;28;39632;-78
2021/05/06 10:22:17;;;;;;;11.00;6.13;;;;;;;;;;5007835;28;38873;-80
2021/05/06 10:24:50;;;;;;;7.90;4.60;;;;;;;;;;5013181;28;37042;-81
2021/05/06 10:27:18;;;;;;;7.53;5.17;;;;;;;;;;5019723;28;38105;-81
2021/05/06 10:29:45;;;;;;;7.17;4.73;;;;;;;;;;5021229;28;38182;-82
2021/05/06 10:32:13;;;;;;;8.93;5.00;;;;;;;;;;5007463;28;37766;-82
2021/05/06 10:34:40;;;;;;;7.13;5.40;;;;;;;;;;5021420;28;37175;-82
2021/05/06 10:37:07;;;;;;;7.63;5.00;;;;;;;;;;5007855;28;39027;-82
2021/05/06 10:39:42;;;;;;;8.17;5.17;;;;;;;;;;5028766;28;38131;-83
2021/05/06 10:45:13;;;;;;;7.90;4.53;;;;;;;;;;4995094;28;38554;-82
2021/05/06 10:47:40;;;;;;;5.60;3.70;;;;;;;;;;5014459;28;39248;-81
2021/05/06 10:50:14;;;;;;;4.20;2.90;;;;;;;;;;5023055;28;38405;-81
2021/05/06 10:52:45;;;;;;;4.53;2.53;;;;;;;;;;5005413;28;38470;-80
2021/05/06 10:55:13;;;;;;;4.07;3.10;;;;;;;;;;5009046;28;37191;-80
2021/05/06 10:57:40;;;;;;;6.97;3.10;;;;;;;;;;5026793;28;40201;-80
2021/05/06 11:00:24;;;;;;;3.43;2.50;;;;;;;;;;5010687;28;38497;-81
2021/05/06 11:02:53;;;;;;;3.43;2.20;;;;;;;;;;4997346;28;49174;-79
2021/05/06 11:05:23;;;;;;;4.35;2.25;;;;;;;;;;4999644;28;37141;-79
2021/05/06 11:08:02;;;;;;;3.00;1.50;;;;;;;;;;4990290;28;39960;-80
2021/05/06 11:10:28;;;;;;;3.60;1.90;;;;;;;;;;4985903;28;47930;-79
2021/05/06 11:12:56;;;;;;;3.13;2.08;;;;;;;;;;4987110;28;38808;-79
2021/05/06 11:15:23;;;;;;;3.25;1.55;;;;;;;;;;5002540;28;37874;-79
2021/05/06 11:17:50;;;;;;;4.53;1.95;;;;;;;;;;5000627;28;39778;-78
2021/05/06 11:20:17;;;;;;;4.32;2.33;;;;;;;;;;4982558;28;40439;-79
2021/05/06 11:22:43;;;;;;;5.68;2.80;;;;;;;;;;4997943;28;38350;-79
2021/05/06 11:25:32;;;;;;;8.27;2.80;;;;;;;;;;4997039;28;36711;-79
2021/05/06 11:28:00;;;;;;;5.68;3.40;;;;;;;;;;4979380;28;38955;-78
2021/05/06 11:30:35;;;;;;;4.32;3.20;;;;;;;;;;4994496;28;38255;-79
2021/05/06 11:33:20;;;;;;;7.28;3.22;;;;;;;;;;4991191;28;38480;-77
2021/05/06 11:35:54;;;;;;;5.63;3.38;;;;;;;;;;4998137;28;36070;-78
2021/05/06 11:38:20;;;;;;;5.80;3.78;;;;;;;;;;4990207;28;37947;-78
2021/05/06 11:40:47;;;;;;;4.25;3.10;;;;;;;;;;4991950;28;37551;-78
2021/05/06 11:43:22;;;;;;;6.28;3.58;;;;;;;;;;4992334;28;39283;-77
2021/05/06 11:45:49;;;;;;;4.40;2.70;;;;;;;;;;4975817;28;37390;-78
2021/05/06 11:48:16;;;;;;;7.75;3.28;;;;;;;;;;4992269;28;37878;-78
2021/05/06 11:50:44;;;;;;;7.18;3.83;;;;;;;;;;4981983;28;39080;-77
2021/05/06 11:53:17;;;;;;;5.07;3.22;;;;;;;;;;5000224;28;38073;-77
2021/05/06 11:55:44;;;;;;;5.50;3.80;;;;;;;;;;4977324;28;37331;-77
2021/05/06 11:58:12;;;;;;;8.52;3.47;;;;;;;;;;4998289;28;39183;-77
2021/05/06 12:00:39;;;;;;;5.13;3.53;;;;;;;;;;4977551;28;37463;-78
2021/05/06 12:03:10;;;;;;;9.30;3.65;;;;;;;;;;4994575;28;39105;-77
2021/05/06 12:05:53;;;;;;;5.57;3.22;;;;;;;;;;4994114;28;36857;-77
2021/05/06 12:08:21;;;;;;;5.18;3.40;;;;;;;;;;4991057;28;40580;-78
2021/05/06 12:10:48;;;;;;;5.88;3.67;;;;;;;;;;5012602;28;37451;-80
2021/05/06 12:13:17;;;;;;;4.50;2.65;;;;;;;;;;5022449;28;41778;-80
2021/05/06 12:19:00;;;;;;;5.55;3.40;;;;;;;;;;5009857;28;49641;-79
2021/05/06 12:21:38;;;;;;;5.60;4.18;;;;;;;;;;5006809;28;37906;-80
2021/05/06 12:24:05;;;;;;;4.72;3.13;;;;;;;;;;5018403;28;38429;-81
2021/05/06 12:26:32;;;;;;;4.13;2.75;;;;;;;;;;5000519;28;37186;-80
2021/05/06 12:28:58;;;;;;;4.10;2.95;;;;;;;;;;5010852;28;38929;-81
2021/05/06 12:31:25;;;;;;;5.00;3.38;;;;;;;;;;5008001;28;38875;-81
2021/05/06 12:33:52;;;;;;;6.28;3.38;;;;;;;;;;5011743;28;37386;-80
2021/05/06 12:36:20;;;;;;;5.75;3.20;;;;;;;;;;5020330;28;35789;-82
2021/05/06 12:38:51;;;;;;;3.78;2.80;;;;;;;;;;5022550;28;38546;-82
2021/05/06 12:41:18;;;;;;;5.47;3.35;;;;;;;;;;5019240;28;38551;-80
2021/05/06 12:43:50;;;;;;;4.93;3.17;;;;;;;;;;5008833;28;38277;-81
2021/05/06 12:46:25;;;;;;;5.35;3.22;;;;;;;;;;5017412;28;36793;-81
2021/05/06 12:48:54;;;;;;;5.97;3.38;;;;;;;;;;5004421;28;38159;-82
2021/05/06 12:51:25;;;;;;;4.55;2.80;;;;;;;;;;5023146;28;38330;-80
2021/05/06 12:53:58;;;;;;;5.82;3.20;;;;;;;;;;4999495;28;40559;-79
2021/05/06 12:56:24;;;;;;;;;;;;;;;;;;5013509;28;35939;-81
2021/05/06 12:58:51;;;;;;;5.05;2.65;;;;;;;;;;5016793;28;38947;-79
2021/05/06 13:01:29;;;;;;;7.07;2.60;;;;;;;;;;5020448;28;38926;-81
2021/05/06 13:03:58;;;;;;;4.15;2.67;;;;;;;;;;5019835;28;38476;-79
2021/05/06 13:06:30;;;;;;;4.93;2.63;;;;;;;;;;5012782;28;35420;-80
2021/05/06 13:09:00;;;;;;;5.75;3.28;;;;;;;;;;4997407;28;38440;-79
2021/05/06 13:11:35;;;;;;;3.67;2.45;;;;;;;;;;5023528;28;38634;-81
2021/05/06 13:14:08;;;;;;;5.93;2.60;;;;;;;;;;5029321;28;38044;-79
2021/05/06 13:16:49;;;;;;;4.30;2.38;;;;;;;;;;5019460;28;38677;-81
2021/05/06 13:19:17;;;;;;;5.63;2.83;;;;;;;;;;5031370;28;37292;-81
2021/05/06 13:24:51;;;;;;;4.15;2.67;;;;;;;;;;5355294;23;20042;-80
2021/05/06 13:27:18;;;;;;;5.30;3.28;;;;;;;;;;4994390;28;37704;-81
2021/05/06 13:30:06;;;;;;;4.43;2.50;;;;;;;;;;4996376;28;39536;-80
2021/05/06 13:32:41;;;;;;;5.80;3.00;;;;;;;;;;4986490;28;49406;-81
2021/05/06 13:35:18;;;;;;;4.50;2.25;;;;;;;;;;4993716;28;41044;-80
2021/05/06 13:37:46;;;;;;;5.93;2.47;;;;;;;;;;5219484;23;35217;-80
2021/05/06 13:40:13;;;;;;;5.25;2.40;;;;;;;;;;4997076;28;37907;-79
2021/05/06 13:42:39;;;;;;;4.13;2.03;;;;;;;;;;4996716;28;36490;-81
2021/05/06 13:45:07;;;;;;;4.85;2.72;;;;;;;;;;4997078;28;39412;-79
2021/05/06 13:47:33;;;;;;;4.85;2.28;;;;;;;;;;4990021;28;37996;-80
2021/05/06 13:49:59;;;;;;;3.83;2.50;;;;;;;;;;4980299;28;37868;-80
2021/05/06 13:52:27;;;;;;;3.17;2.72;;;;;;;;;;4979550;28;39303;-79
2021/05/06 13:55:05;;;;;;;4.53;2.70;;;;;;;;;;4999173;28;38465;-81
2021/05/06 13:57:51;;;;;;;4.75;2.22;;;;;;;;;;5015704;28;50199;-81
2021/05/06 14:00:17;;;;;;;4.38;2.72;;;;;;;;;;4985110;28;38959;-79
2021/05/06 14:02:43;;;;;;;3.50;2.38;;;;;;;;;;4992835;28;38405;-80
2021/05/06 14:05:10;;;;;;;3.13;2.13;;;;;;;;;;4981850;28;38542;-79
2021/05/06 14:07:37;;;;;;;4.32;2.22;;;;;;;;;;4977412;28;38489;-80
2021/05/06 14:10:03;;;;;;;3.10;2.10;;;;;;;;;;4974536;28;38027;-80
2021/05/06 14:12:30;;;;;;;4.53;2.03;;;;;;;;;;4964928;28;36989;-79
2021/05/06 14:14:56;;;;;;;4.85;2.00;;;;;;;;;;4973366;28;37180;-79
2021/05/06 14:17:28;;;;;;;2.58;1.90;;;;;;;;;;4987454;28;37772;-81
2021/05/06 14:19:55;;;;;;;;;;;;;;;;;;4993308;28;37788;-80
2021/05/06 14:22:28;;;;;;;5.07;2.60;;;;;;;;;;4985653;28;40484;-81
2021/05/06 14:24:54;;;;;;;5.15;2.58;;;;;;;;;;4998616;28;39245;-80
2021/05/06 14:27:20;;;;;;;4.70;2.53;;;;;;;;;;4995158;28;35921;-79
2021/05/06 14:29:47;;;;;;;5.57;2.60;;;;;;;;;;4993009;28;38588;-80
2021/05/06 14:32:13;;;;;;;3.60;2.53;;;;;;;;;;4991578;28;37349;-80
2021/05/06 14:34:40;;;;;;;5.03;3.03;;;;;;;;;;4982913;28;38564;-80
2021/05/06 14:37:07;;;;;;;5.80;3.33;;;;;;;;;;4986613;28;37437;-81
2021/05/06 14:39:33;;;;;;;6.50;2.78;;;;;;;;;;4994528;28;37653;-81
2021/05/06 14:41:59;;;;;;;6.05;2.92;;;;;;;;;;4985134;28;38608;-80
2021/05/06 14:44:26;;;;;;;5.75;3.28;;;;;;;;;;5000376;28;37590;-81
2021/05/06 14:46:53;;;;;;;7.35;3.47;;;;;;;;;;4980434;28;36972;-81
2021/05/06 14:49:19;;;;;;;5.15;3.25;;;;;;;;;;4966187;28;38399;-79
2021/05/06 14:51:45;;;;;;;5.05;3.03;;;;;;;;;;4971370;28;38899;-79
2021/05/06 14:54:12;;;;;;;5.55;3.33;;;;;;;;;;4969392;28;38434;-79
2021/05/06 14:56:38;;;;;;;6.60;3.70;;;;;;;;;;4968944;28;37682;-80
2021/05/06 14:59:04;;;;;;;3.70;3.20;;;;;;;;;;4979309;28;38668;-79
2021/05/06 15:01:34;;;;;;;5.90;2.75;;;;;;;;;;4978356;28;38312;-80
2021/05/06 15:04:00;;;;;;;5.18;2.40;;;;;;;;;;4977456;28;41056;-80
2021/05/06 15:06:27;;;;;;;3.75;2.38;;;;;;;;;;4972162;28;48742;-80
2021/05/06 15:08:53;;;;;;;4.70;2.40;;;;;;;;;;4967704;28;39293;-80
2021/05/06 15:11:20;;;;;;;3.85;2.00;;;;;;;;;;4961463;28;37621;-80
2021/05/06 15:13:46;;;;;;;4.50;2.10;;;;;;;;;;4962276;28;36755;-79
2021/05/06 15:16:13;;;;;;;4.53;2.67;;;;;;;;;;4974789;28;37165;-79
2021/05/06 15:18:39;;;;;;;3.28;2.15;;;;;;;;;;4959263;28;40436;-79
2021/05/06 15:21:05;;;;;;;4.15;2.28;;;;;;;;;;4975924;28;38973;-79
2021/05/06 15:23:32;;;;;;;2.83;2.03;;;;;;;;;;4976225;28;39624;-78
2021/05/06 15:25:58;;;;;;;6.88;2.20;;;;;;;;;;4979350;28;36823;-79
2021/05/06 15:28:24;;;;;;;3.83;2.33;;;;;;;;;;4986225;28;38971;-79
2021/05/06 15:30:54;;;;;;;4.25;2.20;;;;;;;;;;4979780;28;39411;-79
2021/05/06 15:33:20;;;;;;;3.70;2.58;;;;;;;;;;4978569;28;38523;-79
2021/05/06 15:35:47;;;;;;;7.80;3.17;;;;;;;;;;4981433;28;35905;-79
2021/05/06 15:38:15;;;;;;;4.75;3.20;;;;;;;;;;4982853;28;39655;-78
2021/05/06 15:40:41;;;;;;;6.82;3.38;;;;;;;;;;4978436;28;39920;-79
2021/05/06 15:43:08;;;;;;;5.50;3.00;;;;;;;;;;4989462;28;36992;-78
2021/05/06 15:45:40;;;;;;;5.35;2.65;;;;;;;;;;4987475;28;37531;-79
2021/05/06 15:48:08;;;;;;;5.07;2.17;;;;;;;;;;4990639;28;39322;-79
2021/05/06 15:50:34;;;;;;;4.88;1.95;;;;;;;;;;4993795;28;38552;-79
2021/05/06 15:53:01;;;;;;;4.57;2.10;;;;;;;;;;4992689;28;38867;-78
2021/05/06 15:55:29;;;;;;;3.47;1.90;;;;;;;;;;4974837;28;47562;-78
2021/05/06 15:57:56;;;;;;;5.53;1.90;;;;;;;;;;4974721;28;39604;-78
2021/05/06 16:00:24;;;;;;;3.10;2.03;;;;;;;;;;4974185;28;39633;-78
2021/05/06 16:02:55;;;;;;;3.17;2.42;;;;;;;;;;4973983;28;40008;-78
2021/05/06 16:05:26;;;;;;;7.25;2.70;;;;;;;;;;4990643;28;38426;-78
2021/05/06 16:07:53;;;;;;;5.63;2.25;;;;;;;;;;4989736;28;38836;-78
2021/05/06 16:10:20;;;;;;;5.75;2.92;;;;;;;;;;4990120;28;39159;-78
2021/05/06 16:12:47;;;;;;;4.72;2.75;;;;;;;;;;4991426;28;38287;-78
2021/05/06 16:15:13;;;;;;;6.28;2.97;;;;;;;;;;4989027;28;38294;-78
2021/05/06 16:17:40;;;;;;;7.13;3.08;;;;;;;;;;4974616;28;39922;-78
2021/05/06 16:20:13;;;;;;;4.30;1.85;;;;;;;;;;4972027;28;38821;-78
2021/05/06 16:22:39;;;;;;;4.53;2.72;;;;;;;;;;4973782;28;38803;-77
2021/05/06 16:25:06;;;;;;;3.83;2.45;;;;;;;;;;4988935;28;36938;-78
2021/05/06 16:27:32;;;;;;;6.07;3.35;;;;;;;;;;4992405;28;39997;-78
2021/05/06 16:29:59;;;;;;;9.23;3.33;;;;;;;;;;4992722;28;38697;-78
2021/05/06 16:32:25;;;;;;;5.65;2.60;;;;;;;;;;4990816;28;38429;-78
2021/05/06 16:34:52;;;;;;;5.25;2.58;;;;;;;;;;4973680;28;37159;-78
2021/05/06 16:37:29;;;;;;;5.30;3.00;;;;;;;;;;4990057;28;40454;-78
2021/05/06 16:40:11;;;;;;;6.40;2.40;;;;;;;;;;4974271;28;39903;-78
2021/05/06 16:45:23;;;;;;;4.80;2.45;;;;;;;;;;4994763;28;38894;-78
2021/05/06 16:47:50;;;;;;;5.13;2.45;;;;;;;;;;4973109;28;37855;-78
2021/05/06 16:50:16;;;;;;;4.22;2.40;;;;;;;;;;4972253;28;40194;-78
2021/05/06 16:52:42;;;;;;;4.43;2.47;;;;;;;;;;4985807;28;39233;-78
2021/05/06 16:55:09;;;;;;;5.70;2.22;;;;;;;;;;4977848;28;37993;-78
2021/05/06 16:57:35;;;;;;;4.95;2.20;;;;;;;;;;4973141;28;40685;-78
2021/05/06 17:00:02;;;;;;;4.07;2.40;;;;;;;;;;4973902;28;40133;-78
2021/05/06 17:02:28;;;;;;;6.53;2.72;;;;;;;;;;4973446;28;38830;-78
2021/05/06 17:04:54;;;;;;;5.25;3.00;;;;;;;;;;5008331;28;37410;-78
2021/05/06 17:07:21;;;;;;;4.22;3.30;;;;;;;;;;5007143;28;39729;-78
2021/05/06 17:09:48;;;;;;;6.72;2.90;;;;;;;;;;5003932;28;36996;-78
2021/05/06 17:12:15;;;;;;;4.30;2.20;;;;;;;;;;4987784;28;39411;-78
2021/05/06 17:14:41;;;;;;;4.72;2.25;;;;;;;;;;4987671;28;37150;-78
2021/05/06 17:17:08;;;;;;;6.18;3.10;;;;;;;;;;4986042;28;38992;-78
2021/05/06 17:19:35;;;;;;;6.90;3.60;;;;;;;;;;4988530;28;38274;-78
2021/05/06 17:22:01;;;;;;;5.40;3.20;;;;;;;;;;4987287;28;38458;-78
2021/05/06 17:24:32;;;;;;;6.03;2.85;;;;;;;;;;4988092;28;49113;-78
2021/05/06 17:26:59;;;;;;;7.07;3.47;;;;;;;;;;4988125;28;40509;-77
2021/05/06 17:29:26;;;;;;;7.72;3.40;;;;;;;;;;4989699;28;38611;-78
2021/05/06 17:31:52;;;;;;;4.45;3.10;;;;;;;;;;4969799;28;39962;-78
2021/05/06 17:34:19;;;;;;;6.18;2.90;;;;;;;;;;4989299;28;37414;-78
2021/05/06 17:36:45;;;;;;;8.32;3.30;;;;;;;;;;4988176;28;39943;-78
2021/05/06 17:39:11;;;;;;;6.57;2.42;;;;;;;;;;4970849;28;39250;-78
2021/05/06 17:41:38;;;;;;;3.92;2.88;;;;;;;;;;4988429;28;37965;-78
2021/05/06 17:44:05;;;;;;;5.82;3.00;;;;;;;;;;4984607;28;37767;-77
2021/05/06 17:46:31;;;;;;;7.10;3.40;;;;;;;;;;4986982;28;39893;-78
2021/05/06 17:48:57;;;;;;;7.07;3.38;;;;;;;;;;4989120;28;38219;-78
2021/05/06 17:51:24;;;;;;;8.98;3.60;;;;;;;;;;4987710;28;38931;-78
2021/05/06 17:53:50;;;;;;;10.23;4.20;;;;;;;;;;4989193;28;37682;-78
2021/05/06 17:56:16;;;;;;;5.82;3.13;;;;;;;;;;4988395;28;39122;-78
2021/05/06 17:58:43;;;;;;;6.00;4.50;;;;;;;;;;4989213;28;38399;-78